Metropolitan Oakland International Airport
KOAK : now visible

Airfield :











YOU CAN JOIN US ON...

 
LOGIN :

Register | Disclaimer

   EN    FR    IT 

 









Legend :    VFR   Marginal VFR   IFR   Intensive IFR   Very Intensive IFR
Visi :
Ceiling :
>= 8 km
>= 3000ft
5 to 8 km
1000 to 3000 ft
1500m to 5 km
500 to 1000 ft
800 to 1500m
200 to 500 ft
< 800m
< 200 ft
Symbols :   Thunderstorms  Fog  Heavy snow  Heavy precipitations  Wind > 20 kt






- Airport Elevation : 9 ft
- IATA code : OAK


KOAK - Metropolitan Oakland International

CURRENT METAR :
  • 080653Z 05005KT 10SM FEW180 07/05 A3036 RMK AO2 SLP279 T00720050

EXPIRED METARs :
  • 080553Z 00000KT 10SM FEW180 08/06 A3036 RMK AO2 SLP279 T00830056 10144 20083 51004
  • 080453Z 00000KT 10SM FEW180 11/07 A3036 RMK AO2 SLP279 T01110072

TAF KOAK
Valid from the 08 at 06:00 until the 09 at 12:00 UTC


080524Z 0806/0912 VRB04KT P6SM FEW250
FM082000 29008KT P6SM FEW250
FM090300 VRB03KT P6SM FEW250
FM091000 VRB03KT 5SM BR FEW010
KZOA FIR / North America



MET'MAP, your aeronautical weather chart ! - Copyright ORBIFLY December 2007 - Disclaimer

ORBIFLY MET'MAP TEAM :

Programming & Development : Alexandra Zaïnal
Original concept : Baudouin d'Aumeries
Technical & hardware support : Manuel Goepfert
Assistance : Marc-Olivier Méhu




SOURCES & CREDITS :

   NOAA       Earth
Advisory